createdAt,value
2023-03-01T00:01:17.494Z,8.50
2023-03-01T00:03:44.512Z,7.88
2023-03-01T00:06:12.526Z,8.40
2023-03-01T00:08:39.179Z,10.02
2023-03-01T00:11:15.769Z,7.93
2023-03-01T00:13:42.956Z,8.43
2023-03-01T00:16:13.891Z,9.85
2023-03-01T00:18:41.270Z,8.68
2023-03-01T00:21:07.914Z,8.90
2023-03-01T00:23:38.708Z,12.18
2023-03-01T00:26:14.178Z,9.70
2023-03-01T00:28:41.113Z,8.48
2023-03-01T00:31:19.573Z,8.07
2023-03-01T00:33:46.720Z,9.43
2023-03-01T00:36:15.413Z,9.10
2023-03-01T00:38:46.130Z,11.00
2023-03-01T00:41:15.959Z,10.23
2023-03-01T00:43:42.758Z,10.45
2023-03-01T00:46:12.171Z,9.50
2023-03-01T00:48:39.150Z,10.07
2023-03-01T00:51:33.235Z,9.57
2023-03-01T00:54:02.679Z,10.27
2023-03-01T00:56:30.867Z,12.98
2023-03-01T00:58:57.860Z,8.52
2023-03-01T01:01:30.617Z,10.82
2023-03-01T01:04:09.838Z,8.70
2023-03-01T01:06:39.499Z,8.60
2023-03-01T01:09:08.310Z,11.88
2023-03-01T01:11:39.049Z,9.93
2023-03-01T01:14:05.865Z,11.90
2023-03-01T01:16:32.832Z,11.07
2023-03-01T01:18:59.775Z,11.60
2023-03-01T01:21:27.925Z,10.05
2023-03-01T01:23:55.031Z,10.23
2023-03-01T01:26:27.768Z,12.02
2023-03-01T01:28:54.966Z,10.05
2023-03-01T01:31:24.609Z,11.57
2023-03-01T01:33:52.842Z,10.45
2023-03-01T01:36:19.721Z,10.85
2023-03-01T01:38:46.532Z,9.60
2023-03-01T01:41:14.432Z,10.75
2023-03-01T01:43:47.266Z,10.50
2023-03-01T01:46:23.026Z,12.93
2023-03-01T01:48:56.061Z,10.15
2023-03-01T01:51:39.025Z,9.05
2023-03-01T01:54:31.458Z,10.73
2023-03-01T01:59:31.571Z,10.27
2023-03-01T02:02:01.968Z,9.20
2023-03-01T02:04:29.733Z,9.68
2023-03-01T02:07:05.175Z,11.10
2023-03-01T02:09:33.203Z,16.08
2023-03-01T02:12:00.202Z,13.65
2023-03-01T02:14:27.426Z,12.65
2023-03-01T02:16:54.236Z,11.38
2023-03-01T02:19:36.808Z,13.18
2023-03-01T02:22:12.781Z,15.48
2023-03-01T02:24:49.498Z,13.70
2023-03-01T02:27:17.668Z,11.82
2023-03-01T02:29:45.001Z,15.27
2023-03-01T02:32:14.311Z,11.15
2023-03-01T02:34:41.085Z,11.82
2023-03-01T02:37:21.409Z,12.57
2023-03-01T02:39:51.445Z,11.45
2023-03-01T02:42:31.408Z,13.73
2023-03-01T02:44:58.088Z,14.52
2023-03-01T02:47:24.763Z,12.73
2023-03-01T02:49:51.517Z,13.15
2023-03-01T02:52:24.089Z,13.73
2023-03-01T02:55:02.309Z,12.07
2023-03-01T02:57:32.044Z,12.00
2023-03-01T03:00:07.805Z,15.75
2023-03-01T03:02:38.659Z,14.13
2023-03-01T03:05:29.914Z,12.77
2023-03-01T03:07:57.729Z,14.05
2023-03-01T03:10:28.699Z,12.88
2023-03-01T03:13:10.681Z,16.10
2023-03-01T03:15:37.615Z,11.25
2023-03-01T03:18:09.053Z,15.20
2023-03-01T03:20:36.057Z,10.88
2023-03-01T03:23:02.840Z,13.00
2023-03-01T03:25:30.366Z,14.88
2023-03-01T03:27:58.012Z,14.80
2023-03-01T03:30:32.272Z,16.45
2023-03-01T03:32:59.938Z,14.70
2023-03-01T03:35:32.328Z,15.27
2023-03-01T03:38:04.616Z,12.13
2023-03-01T03:40:38.694Z,13.95
2023-03-01T03:43:08.318Z,12.65
2023-03-01T03:45:36.027Z,13.60
2023-03-01T03:48:05.281Z,12.82
2023-03-01T03:50:32.329Z,14.05
2023-03-01T03:53:01.345Z,13.55
2023-03-01T03:55:31.419Z,14.25
2023-03-01T03:58:02.808Z,13.88
2023-03-01T04:00:29.878Z,13.82
2023-03-01T04:02:57.534Z,14.50
2023-03-01T04:05:24.469Z,13.75
2023-03-01T04:08:01.788Z,18.38
2023-03-01T04:10:35.481Z,14.63
2023-03-01T04:13:02.524Z,14.35
2023-03-01T04:15:29.417Z,15.40
2023-03-01T04:17:56.927Z,15.10
2023-03-01T04:20:29.660Z,16.08
2023-03-01T04:23:14.402Z,12.95
2023-03-01T04:25:55.811Z,12.73
2023-03-01T04:28:47.050Z,16.07
2023-03-01T04:31:18.305Z,13.43
2023-03-01T04:33:54.007Z,14.90
2023-03-01T04:36:26.539Z,17.02
2023-03-01T04:38:53.735Z,14.00
2023-03-01T04:41:22.710Z,16.00
2023-03-01T04:43:49.777Z,14.27
2023-03-01T04:46:18.749Z,16.75
2023-03-01T04:48:46.408Z,15.40
2023-03-01T04:51:16.696Z,16.38
2023-03-01T04:53:44.895Z,20.23
2023-03-01T04:56:11.940Z,17.90
2023-03-01T04:58:38.660Z,14.75
2023-03-01T05:01:16.623Z,15.20
2023-03-01T05:03:51.957Z,17.27
2023-03-01T05:06:20.045Z,15.35
2023-03-01T05:08:46.695Z,21.85
2023-03-01T05:11:13.479Z,14.10
2023-03-01T05:13:41.382Z,17.30
2023-03-01T05:16:13.178Z,16.08
2023-03-01T05:18:40.802Z,17.90
2023-03-01T05:21:13.229Z,18.40
2023-03-01T05:23:39.994Z,16.80
2023-03-01T05:26:09.335Z,17.95
2023-03-01T05:28:38.908Z,14.75
2023-03-01T05:31:10.586Z,15.50
2023-03-01T05:33:41.452Z,13.90
2023-03-01T05:36:10.637Z,17.88
2023-03-01T05:38:37.968Z,18.60
2023-03-01T05:41:04.814Z,17.63
2023-03-01T05:43:35.500Z,20.17
2023-03-01T05:46:02.461Z,17.88
2023-03-01T05:48:29.150Z,18.33
2023-03-01T05:50:55.846Z,16.75
2023-03-01T05:53:22.523Z,17.20
2023-03-01T05:55:50.699Z,18.48
2023-03-01T05:58:19.972Z,17.83
2023-03-01T06:00:48.630Z,18.35
2023-03-01T06:03:17.275Z,15.95
2023-03-01T06:05:44.294Z,19.90
2023-03-01T06:08:12.614Z,18.23
2023-03-01T06:10:39.841Z,21.15
2023-03-01T06:13:06.546Z,20.58
2023-03-01T06:15:33.356Z,19.40
2023-03-01T06:18:00.397Z,19.95
2023-03-01T06:20:28.683Z,18.05
2023-03-01T06:22:55.475Z,22.08
2023-03-01T06:25:23.731Z,18.25
2023-03-01T06:27:50.589Z,15.60
2023-03-01T06:30:20.069Z,27.00
2023-03-01T06:32:46.708Z,22.80
2023-03-01T06:35:15.345Z,20.90
2023-03-01T06:37:42.658Z,20.27
2023-03-01T06:40:12.561Z,19.27
2023-03-01T06:42:41.228Z,19.40
2023-03-01T06:45:09.533Z,18.95
2023-03-01T06:47:36.186Z,21.00
2023-03-01T06:50:03.723Z,20.23
2023-03-01T06:52:30.588Z,17.75
2023-03-01T06:54:57.222Z,19.40
2023-03-01T06:57:23.986Z,21.02
2023-03-01T06:59:50.741Z,19.02
2023-03-01T07:02:17.552Z,20.58
2023-03-01T07:04:44.158Z,17.85
2023-03-01T07:07:11.419Z,19.65
2023-03-01T07:09:38.092Z,18.38
2023-03-01T07:12:04.935Z,19.40
2023-03-01T07:14:31.600Z,20.80
2023-03-01T07:16:58.191Z,21.23
2023-03-01T07:19:25.322Z,18.98
2023-03-01T07:21:51.949Z,21.15
2023-03-01T07:24:18.674Z,20.92
2023-03-01T07:26:45.256Z,20.15
2023-03-01T07:29:12.202Z,21.42
2023-03-01T07:31:38.931Z,19.00
2023-03-01T07:34:05.775Z,18.45
2023-03-01T07:36:32.753Z,20.30
2023-03-01T07:38:59.608Z,18.58
2023-03-01T07:41:26.303Z,20.77
2023-03-01T07:43:52.950Z,22.05
2023-03-01T07:46:20.047Z,24.63
2023-03-01T07:48:46.904Z,23.15
2023-03-01T07:51:13.685Z,25.83
2023-03-01T07:53:40.584Z,24.58
2023-03-01T07:56:12.503Z,25.50
2023-03-01T07:58:41.588Z,21.02
2023-03-01T08:01:10.715Z,25.95
2023-03-01T08:03:38.541Z,23.85
2023-03-01T08:06:08.812Z,28.77
2023-03-01T08:08:36.666Z,28.63
2023-03-01T08:11:05.203Z,27.40
2023-03-01T08:13:32.438Z,29.25
2023-03-01T08:16:07.630Z,27.95
2023-03-01T08:18:34.522Z,25.63
2023-03-01T08:21:06.151Z,26.52
2023-03-01T08:23:32.871Z,25.02
2023-03-01T08:26:08.219Z,29.33
2023-03-01T08:28:35.116Z,19.55
2023-03-01T08:31:02.275Z,22.52
2023-03-01T08:33:28.983Z,22.30
2023-03-01T08:36:04.549Z,20.83
2023-03-01T08:38:31.177Z,21.88
2023-03-01T08:41:00.933Z,20.85
2023-03-01T08:43:27.601Z,19.88
2023-03-01T08:45:54.306Z,17.25
2023-03-01T08:48:20.975Z,19.58
2023-03-01T08:50:47.793Z,20.45
2023-03-01T08:53:14.475Z,14.88
2023-03-01T08:55:41.110Z,19.17
2023-03-01T08:58:07.773Z,14.32
2023-03-01T09:00:35.865Z,14.65
2023-03-01T09:03:03.121Z,17.52
2023-03-01T09:05:35.485Z,14.23
2023-03-01T09:08:02.226Z,15.38
2023-03-01T09:10:28.954Z,11.18
2023-03-01T09:12:55.995Z,13.75
2023-03-01T09:15:22.646Z,10.82
2023-03-01T09:17:49.258Z,10.38
2023-03-01T09:20:16.110Z,13.68
2023-03-01T09:22:42.778Z,13.90
2023-03-01T09:25:10.468Z,20.55
2023-03-01T09:27:37.154Z,11.02
2023-03-01T09:30:05.302Z,12.75
2023-03-01T09:32:32.656Z,14.30
2023-03-01T09:35:04.485Z,14.73
2023-03-01T09:37:33.221Z,14.25
2023-03-01T09:40:00.007Z,12.45
2023-03-01T09:42:28.337Z,10.85
2023-03-01T09:45:02.817Z,13.48
2023-03-01T09:47:32.047Z,10.10
2023-03-01T09:50:18.544Z,13.65
2023-03-01T09:53:06.683Z,11.27
2023-03-01T09:55:51.596Z,12.65
2023-03-01T09:58:49.168Z,6.55
2023-03-01T10:01:21.766Z,11.02
2023-03-01T10:04:06.609Z,10.38
2023-03-01T10:06:35.260Z,10.07
2023-03-01T10:09:17.804Z,8.55
2023-03-01T10:11:54.756Z,7.80
2023-03-01T10:14:38.958Z,7.32
2023-03-01T10:17:09.884Z,14.05
2023-03-01T10:19:44.273Z,8.43
2023-03-01T10:22:23.640Z,8.23
2023-03-01T10:24:52.700Z,7.35
2023-03-01T10:27:19.413Z,10.95
2023-03-01T10:30:12.031Z,10.45
2023-03-01T10:32:39.090Z,10.00
2023-03-01T10:35:28.972Z,10.45
2023-03-01T10:38:14.501Z,9.05
2023-03-01T10:40:59.366Z,9.57
2023-03-01T10:43:46.770Z,7.75
2023-03-01T10:46:33.118Z,7.07
2023-03-01T10:49:20.845Z,6.40
2023-03-01T10:51:52.532Z,8.55
2023-03-01T10:54:30.644Z,8.77
2023-03-01T10:57:05.905Z,8.80
2023-03-01T10:59:37.196Z,6.50
2023-03-01T11:02:25.901Z,5.78
2023-03-01T11:05:24.675Z,6.43
2023-03-01T11:07:57.375Z,6.45
2023-03-01T11:10:35.667Z,8.82
2023-03-01T11:13:10.061Z,7.18
2023-03-01T11:15:37.170Z,7.68
2023-03-01T11:18:13.880Z,9.50
2023-03-01T11:20:41.170Z,8.20
2023-03-01T11:23:13.291Z,10.48
2023-03-01T11:25:55.963Z,10.98
2023-03-01T11:28:23.800Z,8.82
2023-03-01T11:31:08.557Z,5.78
2023-03-01T11:33:40.531Z,6.15
2023-03-01T11:36:16.411Z,4.82
2023-03-01T11:38:44.333Z,6.13
2023-03-01T11:41:16.185Z,4.57
2023-03-01T11:46:26.058Z,5.93
2023-03-01T11:49:02.253Z,9.73
2023-03-01T11:52:15.040Z,6.65
2023-03-01T11:55:11.604Z,5.50
2023-03-01T11:58:15.418Z,7.32
2023-03-01T12:01:02.623Z,4.82
2023-03-01T12:03:44.194Z,4.40
2023-03-01T12:06:29.904Z,5.60
2023-03-01T12:09:23.719Z,3.13
2023-03-01T12:11:59.159Z,6.63
2023-03-01T12:14:43.529Z,4.65
2023-03-01T12:17:34.379Z,4.00
2023-03-01T12:20:26.186Z,4.43
2023-03-01T12:23:19.396Z,4.65
2023-03-01T12:26:14.404Z,4.82
2023-03-01T12:29:06.302Z,7.75
2023-03-01T12:31:59.973Z,4.60
2023-03-01T12:34:39.472Z,3.88
2023-03-01T12:37:15.056Z,5.95
2023-03-01T12:40:04.593Z,5.45
2023-03-01T12:43:08.030Z,4.55
2023-03-01T12:46:05.135Z,16.65
2023-03-01T12:49:01.206Z,4.00
2023-03-01T12:51:31.444Z,3.00
2023-03-01T12:54:02.762Z,6.13
2023-03-01T12:56:39.054Z,4.13
2023-03-01T12:59:12.998Z,7.45
2023-03-01T13:01:51.434Z,5.60
2023-03-01T13:04:28.737Z,4.38
2023-03-01T13:07:12.491Z,3.10
2023-03-01T13:10:06.047Z,6.07
2023-03-01T13:12:52.233Z,4.47
2023-03-01T13:15:24.895Z,4.68
2023-03-01T13:18:01.177Z,4.38
2023-03-01T13:20:47.732Z,5.40
2023-03-01T13:23:20.350Z,5.30
2023-03-01T13:26:18.053Z,6.43
2023-03-01T13:28:50.751Z,3.60
2023-03-01T13:31:20.374Z,5.57
2023-03-01T13:33:53.840Z,5.95
2023-03-01T13:36:30.492Z,4.32
2023-03-01T13:38:58.486Z,5.97
2023-03-01T13:41:40.441Z,5.25
2023-03-01T13:44:27.164Z,4.80
2023-03-01T13:46:58.595Z,3.95
2023-03-01T13:49:44.373Z,3.92
2023-03-01T13:52:40.278Z,8.80
2023-03-01T13:55:15.337Z,4.28
2023-03-01T13:57:45.609Z,4.63
2023-03-01T14:00:41.584Z,4.40
2023-03-01T14:03:12.743Z,5.55
2023-03-01T14:05:41.030Z,4.78
2023-03-01T14:08:20.878Z,4.95
2023-03-01T14:10:55.822Z,6.18
2023-03-01T14:13:59.640Z,5.22
2023-03-01T14:16:37.441Z,5.30
2023-03-01T14:19:11.603Z,5.85
2023-03-01T14:21:38.415Z,4.80
2023-03-01T14:24:05.414Z,4.97
2023-03-01T14:26:34.587Z,5.85
2023-03-01T14:29:01.451Z,4.97
2023-03-01T14:31:47.177Z,6.07
2023-03-01T14:34:24.620Z,5.63
2023-03-01T14:36:51.469Z,4.68
2023-03-01T14:39:20.870Z,4.95
2023-03-01T14:41:47.701Z,5.50
2023-03-01T14:44:24.028Z,5.78
2023-03-01T14:46:56.107Z,5.53
2023-03-01T14:49:26.466Z,4.03
2023-03-01T14:51:56.137Z,9.50
2023-03-01T14:54:35.937Z,7.00
2023-03-01T14:57:02.710Z,7.60
2023-03-01T14:59:29.616Z,5.25
2023-03-01T15:01:58.686Z,6.35
2023-03-01T15:04:28.453Z,4.63
2023-03-01T15:06:56.823Z,6.78
2023-03-01T15:09:24.344Z,4.35
2023-03-01T15:11:50.985Z,3.17
2023-03-01T15:14:49.499Z,3.92
2023-03-01T15:17:33.560Z,6.38
2023-03-01T15:20:01.795Z,6.83
2023-03-01T15:22:28.889Z,5.10
2023-03-01T15:24:56.040Z,4.15
2023-03-01T15:27:25.347Z,4.93
2023-03-01T15:30:03.097Z,4.68
2023-03-01T15:32:35.283Z,6.20
2023-03-01T15:35:22.910Z,4.55
2023-03-01T15:37:50.730Z,5.50
2023-03-01T15:40:32.360Z,7.03
2023-03-01T15:43:04.483Z,6.38
2023-03-01T15:48:04.324Z,4.93
2023-03-01T15:50:34.849Z,7.13
2023-03-01T15:53:05.136Z,5.00
2023-03-01T15:55:34.095Z,3.97
2023-03-01T15:58:22.418Z,6.47
2023-03-01T16:01:00.899Z,4.50
2023-03-01T16:03:28.414Z,5.30
2023-03-01T16:05:55.238Z,5.90
2023-03-01T16:08:21.889Z,4.28
2023-03-01T16:10:50.799Z,4.75
2023-03-01T16:13:18.236Z,4.43
2023-03-01T16:15:44.957Z,6.93
2023-03-01T16:18:12.560Z,5.88
2023-03-01T16:20:40.027Z,8.07
2023-03-01T16:23:09.426Z,6.63
2023-03-01T16:25:36.654Z,6.38
2023-03-01T16:28:09.361Z,4.93
2023-03-01T16:30:40.569Z,6.13
2023-03-01T16:33:24.333Z,6.53
2023-03-01T16:35:53.327Z,3.92
2023-03-01T16:38:19.968Z,9.20
2023-03-01T16:40:51.766Z,8.10
2023-03-01T16:43:18.480Z,6.97
2023-03-01T16:45:46.269Z,6.40
2023-03-01T16:48:13.777Z,4.35
2023-03-01T16:50:40.868Z,5.85
2023-03-01T16:53:07.586Z,5.55
2023-03-01T16:55:34.430Z,6.50
2023-03-01T16:58:01.654Z,6.03
2023-03-01T17:00:28.494Z,5.63
2023-03-01T17:02:55.661Z,7.05
2023-03-01T17:05:24.610Z,9.02
2023-03-01T17:07:51.661Z,8.80
2023-03-01T17:10:18.725Z,6.57
2023-03-01T17:12:45.384Z,9.70
2023-03-01T17:15:12.910Z,7.82
2023-03-01T17:17:39.654Z,7.90
2023-03-01T17:20:06.740Z,6.18
2023-03-01T17:22:33.440Z,9.00
2023-03-01T17:25:00.840Z,8.35
2023-03-01T17:27:27.666Z,8.98
2023-03-01T17:29:54.359Z,8.77
2023-03-01T17:32:21.140Z,5.72
2023-03-01T17:34:47.920Z,9.75
2023-03-01T17:37:14.580Z,7.95
2023-03-01T17:39:41.228Z,7.03
2023-03-01T17:42:08.070Z,7.45
2023-03-01T17:44:34.895Z,5.57
2023-03-01T17:47:03.243Z,7.15
2023-03-01T17:49:30.317Z,7.20
2023-03-01T17:51:57.170Z,7.72
2023-03-01T17:54:24.263Z,8.40
2023-03-01T17:56:51.703Z,7.82
2023-03-01T17:59:18.994Z,9.98
2023-03-01T18:01:46.408Z,11.13
2023-03-01T18:04:13.376Z,7.53
2023-03-01T18:06:40.878Z,6.70
2023-03-01T18:09:08.624Z,8.73
2023-03-01T18:11:36.076Z,7.53
2023-03-01T18:14:03.347Z,8.77
2023-03-01T18:16:31.781Z,10.60
2023-03-01T18:18:59.686Z,6.88
2023-03-01T18:21:27.304Z,8.05
2023-03-01T18:23:54.679Z,9.52
2023-03-01T18:26:22.689Z,8.48
2023-03-01T18:28:52.817Z,7.60
2023-03-01T18:31:24.241Z,9.15
2023-03-01T18:33:55.289Z,12.45
2023-03-01T18:36:29.709Z,9.83
2023-03-01T18:38:56.987Z,8.15
2023-03-01T18:41:25.687Z,8.23
2023-03-01T18:43:52.890Z,8.57
2023-03-01T18:46:23.026Z,7.75
2023-03-01T18:48:49.801Z,8.25
2023-03-01T18:51:19.613Z,9.23
2023-03-01T18:53:46.944Z,8.80
2023-03-01T18:56:14.241Z,9.75
2023-03-01T18:58:44.740Z,9.30
2023-03-01T19:01:16.901Z,8.80
2023-03-01T19:03:43.824Z,11.07
2023-03-01T19:06:10.566Z,7.63
2023-03-01T19:08:38.258Z,7.40
2023-03-01T19:11:06.014Z,10.85
2023-03-01T19:13:35.637Z,10.27
2023-03-01T19:16:12.006Z,13.35
2023-03-01T19:18:41.070Z,10.90
2023-03-01T19:21:09.829Z,11.98
2023-03-01T19:23:38.283Z,14.07
2023-03-01T19:26:10.681Z,9.63
2023-03-01T19:28:39.606Z,10.15
2023-03-01T19:31:09.767Z,14.63
2023-03-01T19:33:39.867Z,11.38
2023-03-01T19:36:10.844Z,9.73
2023-03-01T19:38:38.644Z,11.23
2023-03-01T19:41:10.851Z,8.68
2023-03-01T19:43:38.237Z,9.00
2023-03-01T19:46:05.141Z,9.85
2023-03-01T19:48:31.947Z,11.77
2023-03-01T19:50:58.816Z,13.18
2023-03-01T19:53:26.058Z,11.32
2023-03-01T19:55:59.152Z,9.52
2023-03-01T19:58:30.001Z,12.00
2023-03-01T20:00:58.763Z,10.85
2023-03-01T20:03:34.213Z,10.20
2023-03-01T20:06:08.212Z,11.30
2023-03-01T20:08:34.930Z,8.35
2023-03-01T20:11:03.621Z,10.90
2023-03-01T20:13:30.280Z,10.05
2023-03-01T20:15:56.982Z,10.55
2023-03-01T20:18:23.640Z,11.18
2023-03-01T20:20:51.156Z,11.23
2023-03-01T20:23:18.888Z,12.32
2023-03-01T20:25:48.676Z,11.50
2023-03-01T20:28:16.238Z,11.27
2023-03-01T20:30:43.159Z,13.55
2023-03-01T20:33:10.036Z,12.75
2023-03-01T20:35:37.212Z,12.63
2023-03-01T20:38:04.378Z,13.75
2023-03-01T20:40:31.851Z,13.30
2023-03-01T20:42:58.821Z,11.65
2023-03-01T20:45:28.085Z,13.13
2023-03-01T20:47:55.400Z,10.75
2023-03-01T20:50:22.013Z,13.27
2023-03-01T20:52:48.598Z,13.00
2023-03-01T20:55:15.236Z,13.52
2023-03-01T20:57:42.085Z,13.13
2023-03-01T21:00:09.770Z,12.88
2023-03-01T21:02:36.553Z,14.70
2023-03-01T21:05:03.382Z,14.60
2023-03-01T21:07:30.046Z,16.30
2023-03-01T21:09:56.749Z,13.00
2023-03-01T21:12:23.374Z,13.82
2023-03-01T21:14:50.021Z,13.98
2023-03-01T21:17:17.761Z,14.00
2023-03-01T21:19:45.150Z,14.10
2023-03-01T21:22:14.299Z,16.08
2023-03-01T21:24:41.326Z,11.57
2023-03-01T21:27:09.595Z,15.38
2023-03-01T21:29:45.397Z,15.68
2023-03-01T21:32:13.757Z,14.18
2023-03-01T21:34:41.166Z,16.20
2023-03-01T21:37:10.369Z,15.80
2023-03-01T21:39:37.729Z,20.20
2023-03-01T21:42:05.521Z,16.67
2023-03-01T21:44:32.607Z,14.48
2023-03-01T21:46:59.635Z,17.40
2023-03-01T21:49:27.054Z,17.23
2023-03-01T21:51:54.060Z,18.15
2023-03-01T21:54:20.952Z,15.73
2023-03-01T21:56:48.595Z,15.52
2023-03-01T21:59:18.410Z,16.52
2023-03-01T22:01:46.202Z,14.65
2023-03-01T22:04:13.526Z,18.48
2023-03-01T22:06:43.830Z,17.83
2023-03-01T22:09:16.120Z,16.73
2023-03-01T22:11:45.950Z,15.43
2023-03-01T22:14:13.873Z,18.67
2023-03-01T22:16:42.776Z,18.35
2023-03-01T22:19:09.932Z,18.58
2023-03-01T22:21:40.320Z,17.75
2023-03-01T22:24:08.014Z,16.85
2023-03-01T22:26:39.217Z,18.67
2023-03-01T22:29:18.118Z,17.17
2023-03-01T22:31:45.565Z,17.23
2023-03-01T22:34:14.633Z,18.58
2023-03-01T22:36:41.438Z,20.90
2023-03-01T22:39:08.183Z,18.02
2023-03-01T22:41:45.915Z,16.55
2023-03-01T22:44:14.885Z,19.83
2023-03-01T22:46:42.445Z,19.73
2023-03-01T22:49:10.043Z,21.20
2023-03-01T22:51:39.425Z,20.27
2023-03-01T22:54:07.273Z,24.65
2023-03-01T22:56:36.607Z,22.75
2023-03-01T22:59:08.524Z,24.83
2023-03-01T23:01:36.351Z,24.25
2023-03-01T23:04:03.536Z,25.65
2023-03-01T23:06:30.935Z,29.70
2023-03-01T23:09:00.396Z,23.73
2023-03-01T23:11:28.086Z,31.05
2023-03-01T23:13:55.555Z,33.10
2023-03-01T23:16:27.193Z,31.77
2023-03-01T23:19:00.519Z,33.80
2023-03-01T23:21:27.542Z,32.58
2023-03-01T23:23:55.601Z,33.10
2023-03-01T23:26:24.694Z,34.95
2023-03-01T23:28:51.460Z,38.25
2023-03-01T23:31:18.853Z,36.47
2023-03-01T23:33:46.884Z,38.42
2023-03-01T23:36:22.325Z,41.88
2023-03-01T23:38:51.132Z,43.00
2023-03-01T23:41:25.787Z,22.42
2023-03-01T23:43:54.699Z,44.00
2023-03-01T23:46:24.154Z,40.20
2023-03-01T23:48:51.112Z,40.95
2023-03-01T23:51:18.509Z,35.53
2023-03-01T23:53:55.534Z,44.85
2023-03-01T23:56:37.196Z,35.58
2023-03-01T23:59:24.164Z,40.25
